sensor_id;sensor_type;location;lat;lon;timestamp;P1;durP1;ratioP1;P2;durP2;ratioP2
62832;SDS011;48891;49.220;6.920;2022-07-30T00:01:55;4.57;;;3.90;;
62832;SDS011;48891;49.220;6.920;2022-07-30T00:04:20;4.97;;;3.72;;
62832;SDS011;48891;49.220;6.920;2022-07-30T00:06:45;4.20;;;3.77;;
62832;SDS011;48891;49.220;6.920;2022-07-30T00:09:10;5.35;;;3.78;;
62832;SDS011;48891;49.220;6.920;2022-07-30T00:11:35;5.30;;;3.65;;
62832;SDS011;48891;49.220;6.920;2022-07-30T00:14:01;5.57;;;3.83;;
62832;SDS011;48891;49.220;6.920;2022-07-30T00:16:26;4.90;;;3.87;;
62832;SDS011;48891;49.220;6.920;2022-07-30T00:18:51;4.93;;;3.80;;
62832;SDS011;48891;49.220;6.920;2022-07-30T00:21:16;6.03;;;3.92;;
62832;SDS011;48891;49.220;6.920;2022-07-30T00:23:41;4.65;;;3.63;;
62832;SDS011;48891;49.220;6.920;2022-07-30T00:26:06;4.50;;;3.57;;
62832;SDS011;48891;49.220;6.920;2022-07-30T00:28:32;4.80;;;3.60;;
62832;SDS011;48891;49.220;6.920;2022-07-30T00:30:57;5.97;;;3.90;;
62832;SDS011;48891;49.220;6.920;2022-07-30T00:33:22;5.75;;;3.55;;
62832;SDS011;48891;49.220;6.920;2022-07-30T00:35:47;5.35;;;3.90;;
62832;SDS011;48891;49.220;6.920;2022-07-30T00:38:12;4.93;;;3.80;;
62832;SDS011;48891;49.220;6.920;2022-07-30T00:40:37;5.03;;;3.85;;
62832;SDS011;48891;49.220;6.920;2022-07-30T00:43:02;5.63;;;3.70;;
62832;SDS011;48891;49.220;6.920;2022-07-30T00:45:27;4.75;;;3.60;;
62832;SDS011;48891;49.220;6.920;2022-07-30T00:47:53;4.57;;;3.58;;
62832;SDS011;48891;49.220;6.920;2022-07-30T00:50:18;5.63;;;4.20;;
62832;SDS011;48891;49.220;6.920;2022-07-30T00:52:43;5.68;;;3.88;;
62832;SDS011;48891;49.220;6.920;2022-07-30T00:55:10;5.30;;;3.55;;
62832;SDS011;48891;49.220;6.920;2022-07-30T00:57:35;4.95;;;3.70;;
62832;SDS011;48891;49.220;6.920;2022-07-30T01:00:00;5.63;;;4.05;;
62832;SDS011;48891;49.220;6.920;2022-07-30T01:02:25;5.13;;;3.90;;
62832;SDS011;48891;49.220;6.920;2022-07-30T01:04:51;5.30;;;4.28;;
62832;SDS011;48891;49.220;6.920;2022-07-30T01:07:16;6.47;;;4.13;;
62832;SDS011;48891;49.220;6.920;2022-07-30T01:09:41;4.93;;;3.90;;
62832;SDS011;48891;49.220;6.920;2022-07-30T01:12:06;6.18;;;4.05;;
62832;SDS011;48891;49.220;6.920;2022-07-30T01:14:35;5.22;;;4.07;;
62832;SDS011;48891;49.220;6.920;2022-07-30T01:17:01;5.47;;;4.20;;
62832;SDS011;48891;49.220;6.920;2022-07-30T01:19:27;6.57;;;3.78;;
62832;SDS011;48891;49.220;6.920;2022-07-30T01:21:58;4.97;;;3.93;;
62832;SDS011;48891;49.220;6.920;2022-07-30T01:24:26;6.00;;;4.03;;
62832;SDS011;48891;49.220;6.920;2022-07-30T01:29:17;6.00;;;4.20;;
62832;SDS011;48891;49.220;6.920;2022-07-30T01:31:43;6.25;;;3.95;;
62832;SDS011;48891;49.220;6.920;2022-07-30T01:34:08;6.28;;;3.90;;
62832;SDS011;48891;49.220;6.920;2022-07-30T01:36:33;5.55;;;4.18;;
62832;SDS011;48891;49.220;6.920;2022-07-30T01:38:59;6.90;;;4.32;;
62832;SDS011;48891;49.220;6.920;2022-07-30T01:41:24;5.80;;;3.53;;
62832;SDS011;48891;49.220;6.920;2022-07-30T01:43:50;4.63;;;3.50;;
62832;SDS011;48891;49.220;6.920;2022-07-30T01:46:16;5.65;;;4.30;;
62832;SDS011;48891;49.220;6.920;2022-07-30T01:48:42;5.80;;;4.13;;
62832;SDS011;48891;49.220;6.920;2022-07-30T01:51:08;5.70;;;3.95;;
62832;SDS011;48891;49.220;6.920;2022-07-30T01:53:36;5.80;;;3.97;;
62832;SDS011;48891;49.220;6.920;2022-07-30T01:56:01;5.65;;;3.92;;
62832;SDS011;48891;49.220;6.920;2022-07-30T01:58:28;5.72;;;4.07;;
62832;SDS011;48891;49.220;6.920;2022-07-30T02:00:55;6.22;;;4.15;;
62832;SDS011;48891;49.220;6.920;2022-07-30T02:03:20;6.50;;;3.92;;
62832;SDS011;48891;49.220;6.920;2022-07-30T02:05:48;5.23;;;3.53;;
62832;SDS011;48891;49.220;6.920;2022-07-30T02:08:18;6.30;;;4.00;;
62832;SDS011;48891;49.220;6.920;2022-07-30T02:10:53;5.15;;;3.85;;
62832;SDS011;48891;49.220;6.920;2022-07-30T02:13:22;5.43;;;3.83;;
62832;SDS011;48891;49.220;6.920;2022-07-30T02:18:39;6.00;;;3.90;;
62832;SDS011;48891;49.220;6.920;2022-07-30T02:21:08;6.63;;;4.30;;
62832;SDS011;48891;49.220;6.920;2022-07-30T02:23:34;5.55;;;3.63;;
62832;SDS011;48891;49.220;6.920;2022-07-30T02:26:00;5.00;;;3.65;;
62832;SDS011;48891;49.220;6.920;2022-07-30T02:28:25;6.55;;;3.92;;
62832;SDS011;48891;49.220;6.920;2022-07-30T02:30:52;5.32;;;3.72;;
62832;SDS011;48891;49.220;6.920;2022-07-30T02:33:20;7.07;;;4.18;;
62832;SDS011;48891;49.220;6.920;2022-07-30T02:38:11;6.82;;;3.97;;
62832;SDS011;48891;49.220;6.920;2022-07-30T02:40:39;5.28;;;3.85;;
62832;SDS011;48891;49.220;6.920;2022-07-30T02:43:05;5.63;;;4.03;;
62832;SDS011;48891;49.220;6.920;2022-07-30T02:45:30;4.47;;;3.53;;
62832;SDS011;48891;49.220;6.920;2022-07-30T02:48:04;5.32;;;3.80;;
62832;SDS011;48891;49.220;6.920;2022-07-30T02:50:30;6.32;;;4.10;;
62832;SDS011;48891;49.220;6.920;2022-07-30T02:52:56;5.95;;;4.30;;
62832;SDS011;48891;49.220;6.920;2022-07-30T02:55:21;7.10;;;4.22;;
62832;SDS011;48891;49.220;6.920;2022-07-30T02:57:47;5.70;;;4.07;;
62832;SDS011;48891;49.220;6.920;2022-07-30T03:00:13;5.20;;;3.97;;
62832;SDS011;48891;49.220;6.920;2022-07-30T03:02:38;6.05;;;4.13;;
62832;SDS011;48891;49.220;6.920;2022-07-30T03:05:05;4.88;;;3.95;;
62832;SDS011;48891;49.220;6.920;2022-07-30T03:07:31;5.10;;;3.90;;
62832;SDS011;48891;49.220;6.920;2022-07-30T03:09:58;6.10;;;4.10;;
62832;SDS011;48891;49.220;6.920;2022-07-30T03:12:23;5.25;;;3.85;;
62832;SDS011;48891;49.220;6.920;2022-07-30T03:14:49;6.45;;;3.78;;
62832;SDS011;48891;49.220;6.920;2022-07-30T03:17:14;5.73;;;3.70;;
62832;SDS011;48891;49.220;6.920;2022-07-30T03:19:40;5.60;;;4.10;;
62832;SDS011;48891;49.220;6.920;2022-07-30T03:22:06;5.90;;;4.10;;
62832;SDS011;48891;49.220;6.920;2022-07-30T03:24:32;6.10;;;3.70;;
62832;SDS011;48891;49.220;6.920;2022-07-30T03:26:58;5.20;;;3.95;;
62832;SDS011;48891;49.220;6.920;2022-07-30T03:29:24;6.80;;;4.07;;
62832;SDS011;48891;49.220;6.920;2022-07-30T03:31:50;6.40;;;4.10;;
62832;SDS011;48891;49.220;6.920;2022-07-30T03:34:16;5.45;;;3.90;;
62832;SDS011;48891;49.220;6.920;2022-07-30T03:36:42;5.07;;;3.92;;
62832;SDS011;48891;49.220;6.920;2022-07-30T03:39:07;5.63;;;4.27;;
62832;SDS011;48891;49.220;6.920;2022-07-30T03:41:33;5.38;;;3.95;;
62832;SDS011;48891;49.220;6.920;2022-07-30T03:43:59;5.82;;;4.10;;
62832;SDS011;48891;49.220;6.920;2022-07-30T03:46:24;6.03;;;3.80;;
62832;SDS011;48891;49.220;6.920;2022-07-30T03:48:51;5.15;;;3.83;;
62832;SDS011;48891;49.220;6.920;2022-07-30T03:51:16;6.13;;;3.78;;
62832;SDS011;48891;49.220;6.920;2022-07-30T03:53:41;6.93;;;4.53;;
62832;SDS011;48891;49.220;6.920;2022-07-30T03:56:07;5.97;;;4.20;;
62832;SDS011;48891;49.220;6.920;2022-07-30T03:58:32;4.43;;;4.00;;
62832;SDS011;48891;49.220;6.920;2022-07-30T04:00:58;5.30;;;4.10;;
62832;SDS011;48891;49.220;6.920;2022-07-30T04:03:26;6.13;;;3.90;;
62832;SDS011;48891;49.220;6.920;2022-07-30T04:05:52;4.75;;;3.90;;
62832;SDS011;48891;49.220;6.920;2022-07-30T04:08:17;6.50;;;4.30;;
62832;SDS011;48891;49.220;6.920;2022-07-30T04:10:42;4.55;;;3.75;;
62832;SDS011;48891;49.220;6.920;2022-07-30T04:13:07;5.43;;;4.00;;
62832;SDS011;48891;49.220;6.920;2022-07-30T04:15:32;6.05;;;4.00;;
62832;SDS011;48891;49.220;6.920;2022-07-30T04:20:30;5.10;;;3.67;;
62832;SDS011;48891;49.220;6.920;2022-07-30T04:22:56;6.72;;;4.03;;
62832;SDS011;48891;49.220;6.920;2022-07-30T04:25:22;4.57;;;3.88;;
62832;SDS011;48891;49.220;6.920;2022-07-30T04:27:48;6.15;;;3.97;;
62832;SDS011;48891;49.220;6.920;2022-07-30T04:30:13;4.93;;;3.97;;
62832;SDS011;48891;49.220;6.920;2022-07-30T04:32:38;5.88;;;4.35;;
62832;SDS011;48891;49.220;6.920;2022-07-30T04:35:03;5.70;;;4.15;;
62832;SDS011;48891;49.220;6.920;2022-07-30T04:37:29;5.40;;;4.00;;
62832;SDS011;48891;49.220;6.920;2022-07-30T04:39:54;5.03;;;3.90;;
62832;SDS011;48891;49.220;6.920;2022-07-30T04:42:19;6.63;;;3.92;;
62832;SDS011;48891;49.220;6.920;2022-07-30T04:44:45;6.43;;;4.00;;
62832;SDS011;48891;49.220;6.920;2022-07-30T04:47:10;5.40;;;4.37;;
62832;SDS011;48891;49.220;6.920;2022-07-30T04:49:35;6.43;;;4.00;;
62832;SDS011;48891;49.220;6.920;2022-07-30T04:52:01;4.82;;;3.72;;
62832;SDS011;48891;49.220;6.920;2022-07-30T04:54:27;4.85;;;3.88;;
62832;SDS011;48891;49.220;6.920;2022-07-30T04:56:57;6.10;;;4.15;;
62832;SDS011;48891;49.220;6.920;2022-07-30T04:59:23;6.93;;;4.30;;
62832;SDS011;48891;49.220;6.920;2022-07-30T05:01:48;5.28;;;3.90;;
62832;SDS011;48891;49.220;6.920;2022-07-30T05:04:14;5.78;;;4.10;;
62832;SDS011;48891;49.220;6.920;2022-07-30T05:06:40;6.40;;;3.90;;
62832;SDS011;48891;49.220;6.920;2022-07-30T05:09:05;5.45;;;4.00;;
62832;SDS011;48891;49.220;6.920;2022-07-30T05:11:31;4.32;;;3.90;;
62832;SDS011;48891;49.220;6.920;2022-07-30T05:13:56;4.77;;;3.90;;
62832;SDS011;48891;49.220;6.920;2022-07-30T05:16:21;4.75;;;4.00;;
62832;SDS011;48891;49.220;6.920;2022-07-30T05:18:46;5.40;;;3.60;;
62832;SDS011;48891;49.220;6.920;2022-07-30T05:21:11;5.45;;;4.05;;
62832;SDS011;48891;49.220;6.920;2022-07-30T05:23:36;5.50;;;3.80;;
62832;SDS011;48891;49.220;6.920;2022-07-30T05:26:01;4.63;;;3.58;;
62832;SDS011;48891;49.220;6.920;2022-07-30T05:28:27;6.57;;;3.80;;
62832;SDS011;48891;49.220;6.920;2022-07-30T05:30:52;5.38;;;3.67;;
62832;SDS011;48891;49.220;6.920;2022-07-30T05:33:17;5.50;;;3.75;;
62832;SDS011;48891;49.220;6.920;2022-07-30T05:35:42;4.90;;;4.10;;
62832;SDS011;48891;49.220;6.920;2022-07-30T05:38:08;5.90;;;3.70;;
62832;SDS011;48891;49.220;6.920;2022-07-30T05:40:33;5.33;;;3.77;;
62832;SDS011;48891;49.220;6.920;2022-07-30T05:42:58;5.38;;;4.00;;
62832;SDS011;48891;49.220;6.920;2022-07-30T05:45:23;5.03;;;3.90;;
62832;SDS011;48891;49.220;6.920;2022-07-30T05:47:48;5.00;;;3.50;;
62832;SDS011;48891;49.220;6.920;2022-07-30T05:50:13;5.43;;;4.03;;
62832;SDS011;48891;49.220;6.920;2022-07-30T05:52:38;4.60;;;3.78;;
62832;SDS011;48891;49.220;6.920;2022-07-30T05:55:04;5.47;;;4.10;;
62832;SDS011;48891;49.220;6.920;2022-07-30T05:57:29;5.40;;;3.90;;
62832;SDS011;48891;49.220;6.920;2022-07-30T05:59:54;5.18;;;3.63;;
62832;SDS011;48891;49.220;6.920;2022-07-30T06:02:19;5.97;;;3.92;;
62832;SDS011;48891;49.220;6.920;2022-07-30T06:04:44;5.03;;;3.90;;
62832;SDS011;48891;49.220;6.920;2022-07-30T06:07:09;4.53;;;4.03;;
62832;SDS011;48891;49.220;6.920;2022-07-30T06:09:34;6.95;;;4.15;;
62832;SDS011;48891;49.220;6.920;2022-07-30T06:12:00;6.30;;;3.97;;
62832;SDS011;48891;49.220;6.920;2022-07-30T06:14:25;6.18;;;4.20;;
62832;SDS011;48891;49.220;6.920;2022-07-30T06:16:50;5.35;;;3.85;;
62832;SDS011;48891;49.220;6.920;2022-07-30T06:19:15;5.95;;;3.85;;
62832;SDS011;48891;49.220;6.920;2022-07-30T06:21:40;6.50;;;4.25;;
62832;SDS011;48891;49.220;6.920;2022-07-30T06:24:05;6.65;;;3.63;;
62832;SDS011;48891;49.220;6.920;2022-07-30T06:26:31;6.53;;;4.15;;
62832;SDS011;48891;49.220;6.920;2022-07-30T06:28:56;8.65;;;3.95;;
62832;SDS011;48891;49.220;6.920;2022-07-30T06:31:21;5.45;;;3.60;;
62832;SDS011;48891;49.220;6.920;2022-07-30T06:33:46;4.80;;;3.58;;
62832;SDS011;48891;49.220;6.920;2022-07-30T06:36:11;6.32;;;3.50;;
62832;SDS011;48891;49.220;6.920;2022-07-30T06:38:37;5.95;;;3.97;;
62832;SDS011;48891;49.220;6.920;2022-07-30T06:41:02;6.20;;;4.03;;
62832;SDS011;48891;49.220;6.920;2022-07-30T06:43:27;5.22;;;4.10;;
62832;SDS011;48891;49.220;6.920;2022-07-30T06:45:52;7.27;;;4.00;;
62832;SDS011;48891;49.220;6.920;2022-07-30T06:48:17;6.38;;;3.67;;
62832;SDS011;48891;49.220;6.920;2022-07-30T06:50:42;9.30;;;4.67;;
62832;SDS011;48891;49.220;6.920;2022-07-30T06:53:08;5.32;;;3.83;;
62832;SDS011;48891;49.220;6.920;2022-07-30T06:55:33;6.05;;;3.70;;
62832;SDS011;48891;49.220;6.920;2022-07-30T06:57:58;4.90;;;3.97;;
62832;SDS011;48891;49.220;6.920;2022-07-30T07:00:23;6.25;;;4.20;;
62832;SDS011;48891;49.220;6.920;2022-07-30T07:02:48;5.10;;;4.20;;
62832;SDS011;48891;49.220;6.920;2022-07-30T07:05:13;6.32;;;4.50;;
62832;SDS011;48891;49.220;6.920;2022-07-30T07:07:38;6.45;;;4.07;;
62832;SDS011;48891;49.220;6.920;2022-07-30T07:10:04;6.85;;;4.28;;
62832;SDS011;48891;49.220;6.920;2022-07-30T07:12:29;5.28;;;4.00;;
62832;SDS011;48891;49.220;6.920;2022-07-30T07:14:54;5.53;;;3.90;;
62832;SDS011;48891;49.220;6.920;2022-07-30T07:17:19;6.03;;;4.05;;
62832;SDS011;48891;49.220;6.920;2022-07-30T07:19:44;7.30;;;4.47;;
62832;SDS011;48891;49.220;6.920;2022-07-30T07:22:09;5.65;;;4.22;;
62832;SDS011;48891;49.220;6.920;2022-07-30T07:24:34;5.47;;;3.90;;
62832;SDS011;48891;49.220;6.920;2022-07-30T07:27:00;6.20;;;4.07;;
62832;SDS011;48891;49.220;6.920;2022-07-30T07:29:25;8.27;;;3.67;;
62832;SDS011;48891;49.220;6.920;2022-07-30T07:31:50;7.78;;;4.20;;
62832;SDS011;48891;49.220;6.920;2022-07-30T07:34:15;6.25;;;3.67;;
62832;SDS011;48891;49.220;6.920;2022-07-30T07:36:40;5.33;;;3.77;;
62832;SDS011;48891;49.220;6.920;2022-07-30T07:39:06;7.30;;;3.88;;
62832;SDS011;48891;49.220;6.920;2022-07-30T07:41:31;6.63;;;4.13;;
62832;SDS011;48891;49.220;6.920;2022-07-30T07:43:56;6.07;;;3.63;;
62832;SDS011;48891;49.220;6.920;2022-07-30T07:46:21;6.63;;;3.55;;
62832;SDS011;48891;49.220;6.920;2022-07-30T07:48:46;4.93;;;3.50;;
62832;SDS011;48891;49.220;6.920;2022-07-30T07:51:12;5.55;;;3.40;;
62832;SDS011;48891;49.220;6.920;2022-07-30T07:53:37;5.70;;;3.90;;
62832;SDS011;48891;49.220;6.920;2022-07-30T07:56:02;5.97;;;3.42;;
62832;SDS011;48891;49.220;6.920;2022-07-30T07:58:27;6.90;;;3.53;;
62832;SDS011;48891;49.220;6.920;2022-07-30T08:00:52;5.57;;;3.60;;
62832;SDS011;48891;49.220;6.920;2022-07-30T08:03:17;4.07;;;3.33;;
62832;SDS011;48891;49.220;6.920;2022-07-30T08:05:43;4.97;;;3.47;;
62832;SDS011;48891;49.220;6.920;2022-07-30T08:08:08;4.60;;;3.80;;
62832;SDS011;48891;49.220;6.920;2022-07-30T08:10:33;4.72;;;3.50;;
62832;SDS011;48891;49.220;6.920;2022-07-30T08:12:58;4.55;;;3.05;;
62832;SDS011;48891;49.220;6.920;2022-07-30T08:15:23;4.73;;;3.40;;
62832;SDS011;48891;49.220;6.920;2022-07-30T08:17:48;5.72;;;3.53;;
62832;SDS011;48891;49.220;6.920;2022-07-30T08:20:14;4.40;;;3.15;;
62832;SDS011;48891;49.220;6.920;2022-07-30T08:22:39;5.95;;;3.15;;
62832;SDS011;48891;49.220;6.920;2022-07-30T08:25:04;4.00;;;3.15;;
62832;SDS011;48891;49.220;6.920;2022-07-30T08:27:30;6.13;;;3.22;;
62832;SDS011;48891;49.220;6.920;2022-07-30T08:29:55;4.32;;;3.30;;
62832;SDS011;48891;49.220;6.920;2022-07-30T08:32:20;4.10;;;2.90;;
62832;SDS011;48891;49.220;6.920;2022-07-30T08:34:45;5.55;;;3.47;;
62832;SDS011;48891;49.220;6.920;2022-07-30T08:37:10;4.23;;;3.23;;
62832;SDS011;48891;49.220;6.920;2022-07-30T08:39:35;6.83;;;3.20;;
62832;SDS011;48891;49.220;6.920;2022-07-30T08:42:01;5.32;;;3.28;;
62832;SDS011;48891;49.220;6.920;2022-07-30T08:44:27;5.18;;;2.97;;
62832;SDS011;48891;49.220;6.920;2022-07-30T08:46:52;3.88;;;3.00;;
62832;SDS011;48891;49.220;6.920;2022-07-30T08:49:18;4.93;;;3.13;;
62832;SDS011;48891;49.220;6.920;2022-07-30T08:51:43;7.13;;;3.50;;
62832;SDS011;48891;49.220;6.920;2022-07-30T08:54:09;7.85;;;3.53;;
62832;SDS011;48891;49.220;6.920;2022-07-30T08:56:34;8.18;;;3.50;;
62832;SDS011;48891;49.220;6.920;2022-07-30T08:58:59;4.93;;;3.38;;
62832;SDS011;48891;49.220;6.920;2022-07-30T09:01:24;6.20;;;3.20;;
62832;SDS011;48891;49.220;6.920;2022-07-30T09:03:50;5.55;;;3.67;;
62832;SDS011;48891;49.220;6.920;2022-07-30T09:06:15;5.72;;;3.17;;
62832;SDS011;48891;49.220;6.920;2022-07-30T09:08:40;4.45;;;3.13;;
62832;SDS011;48891;49.220;6.920;2022-07-30T09:11:05;6.45;;;3.20;;
62832;SDS011;48891;49.220;6.920;2022-07-30T09:13:35;5.10;;;3.05;;
62832;SDS011;48891;49.220;6.920;2022-07-30T09:16:00;6.45;;;3.38;;
62832;SDS011;48891;49.220;6.920;2022-07-30T09:18:36;4.32;;;3.08;;
62832;SDS011;48891;49.220;6.920;2022-07-30T09:23:39;4.93;;;3.28;;
62832;SDS011;48891;49.220;6.920;2022-07-30T09:26:05;5.28;;;3.20;;
62832;SDS011;48891;49.220;6.920;2022-07-30T09:28:31;5.50;;;3.35;;
62832;SDS011;48891;49.220;6.920;2022-07-30T09:30:56;7.20;;;2.70;;
62832;SDS011;48891;49.220;6.920;2022-07-30T09:33:35;6.27;;;3.03;;
62832;SDS011;48891;49.220;6.920;2022-07-30T09:36:00;5.53;;;2.65;;
62832;SDS011;48891;49.220;6.920;2022-07-30T09:38:26;5.45;;;2.80;;
62832;SDS011;48891;49.220;6.920;2022-07-30T09:40:55;5.05;;;3.03;;
62832;SDS011;48891;49.220;6.920;2022-07-30T09:43:21;4.70;;;3.15;;
62832;SDS011;48891;49.220;6.920;2022-07-30T09:45:53;3.95;;;2.80;;
62832;SDS011;48891;49.220;6.920;2022-07-30T09:48:19;5.97;;;3.03;;
62832;SDS011;48891;49.220;6.920;2022-07-30T09:50:49;4.28;;;2.88;;
62832;SDS011;48891;49.220;6.920;2022-07-30T09:53:14;4.82;;;3.00;;
62832;SDS011;48891;49.220;6.920;2022-07-30T09:55:39;5.18;;;2.72;;
62832;SDS011;48891;49.220;6.920;2022-07-30T09:58:05;5.20;;;2.60;;
62832;SDS011;48891;49.220;6.920;2022-07-30T10:00:31;5.55;;;2.90;;
62832;SDS011;48891;49.220;6.920;2022-07-30T10:02:56;4.55;;;3.00;;
62832;SDS011;48891;49.220;6.920;2022-07-30T10:05:21;4.40;;;3.15;;
62832;SDS011;48891;49.220;6.920;2022-07-30T10:07:51;4.18;;;2.78;;
62832;SDS011;48891;49.220;6.920;2022-07-30T10:10:34;4.60;;;2.53;;
62832;SDS011;48891;49.220;6.920;2022-07-30T10:13:00;4.72;;;2.47;;
62832;SDS011;48891;49.220;6.920;2022-07-30T10:15:29;4.88;;;2.83;;
62832;SDS011;48891;49.220;6.920;2022-07-30T10:17:55;3.22;;;2.65;;
62832;SDS011;48891;49.220;6.920;2022-07-30T10:20:20;4.25;;;2.70;;
62832;SDS011;48891;49.220;6.920;2022-07-30T10:22:45;4.10;;;2.80;;
62832;SDS011;48891;49.220;6.920;2022-07-30T10:25:11;3.78;;;2.70;;
62832;SDS011;48891;49.220;6.920;2022-07-30T10:27:36;5.22;;;2.70;;
62832;SDS011;48891;49.220;6.920;2022-07-30T10:30:02;3.70;;;2.80;;
62832;SDS011;48891;49.220;6.920;2022-07-30T10:32:27;3.83;;;2.42;;
62832;SDS011;48891;49.220;6.920;2022-07-30T10:34:53;4.45;;;2.60;;
62832;SDS011;48891;49.220;6.920;2022-07-30T10:37:18;3.67;;;2.70;;
62832;SDS011;48891;49.220;6.920;2022-07-30T10:39:46;3.88;;;2.70;;
62832;SDS011;48891;49.220;6.920;2022-07-30T10:47:13;3.50;;;2.40;;
62832;SDS011;48891;49.220;6.920;2022-07-30T10:49:39;3.70;;;2.90;;
62832;SDS011;48891;49.220;6.920;2022-07-30T10:52:05;5.13;;;2.97;;
62832;SDS011;48891;49.220;6.920;2022-07-30T10:57:19;3.83;;;2.67;;
62832;SDS011;48891;49.220;6.920;2022-07-30T11:02:18;4.38;;;2.85;;
62832;SDS011;48891;49.220;6.920;2022-07-30T11:04:43;5.35;;;2.80;;
62832;SDS011;48891;49.220;6.920;2022-07-30T11:09:47;4.95;;;2.92;;
62832;SDS011;48891;49.220;6.920;2022-07-30T11:12:12;3.85;;;2.53;;
62832;SDS011;48891;49.220;6.920;2022-07-30T11:17:18;3.40;;;2.50;;
62832;SDS011;48891;49.220;6.920;2022-07-30T11:22:30;3.45;;;2.55;;
62832;SDS011;48891;49.220;6.920;2022-07-30T11:24:56;3.95;;;2.55;;
62832;SDS011;48891;49.220;6.920;2022-07-30T11:30:29;4.80;;;2.47;;
62832;SDS011;48891;49.220;6.920;2022-07-30T11:32:51;5.35;;;2.70;;
62832;SDS011;48891;49.220;6.920;2022-07-30T11:35:29;3.55;;;2.20;;
62832;SDS011;48891;49.220;6.920;2022-07-30T11:40:20;2.60;;;2.22;;
62832;SDS011;48891;49.220;6.920;2022-07-30T11:42:45;3.93;;;2.53;;
62832;SDS011;48891;49.220;6.920;2022-07-30T11:47:45;3.80;;;2.30;;
62832;SDS011;48891;49.220;6.920;2022-07-30T11:50:16;3.63;;;2.40;;
62832;SDS011;48891;49.220;6.920;2022-07-30T11:52:42;3.13;;;2.30;;
62832;SDS011;48891;49.220;6.920;2022-07-30T11:55:07;3.30;;;2.40;;
62832;SDS011;48891;49.220;6.920;2022-07-30T11:57:42;3.05;;;2.35;;
62832;SDS011;48891;49.220;6.920;2022-07-30T12:00:07;3.80;;;2.50;;
62832;SDS011;48891;49.220;6.920;2022-07-30T12:02:32;3.55;;;2.50;;
62832;SDS011;48891;49.220;6.920;2022-07-30T12:04:57;3.28;;;2.40;;
62832;SDS011;48891;49.220;6.920;2022-07-30T12:07:22;4.45;;;2.33;;
62832;SDS011;48891;49.220;6.920;2022-07-30T12:09:47;2.53;;;2.23;;
62832;SDS011;48891;49.220;6.920;2022-07-30T12:12:22;4.47;;;2.53;;
62832;SDS011;48891;49.220;6.920;2022-07-30T12:14:49;3.13;;;2.15;;
62832;SDS011;48891;49.220;6.920;2022-07-30T12:17:14;3.45;;;2.10;;
62832;SDS011;48891;49.220;6.920;2022-07-30T12:19:43;2.97;;;2.40;;
62832;SDS011;48891;49.220;6.920;2022-07-30T12:22:08;3.33;;;2.40;;
62832;SDS011;48891;49.220;6.920;2022-07-30T12:24:33;3.10;;;2.10;;
62832;SDS011;48891;49.220;6.920;2022-07-30T12:27:05;3.42;;;2.30;;
62832;SDS011;48891;49.220;6.920;2022-07-30T12:29:30;3.95;;;2.30;;
62832;SDS011;48891;49.220;6.920;2022-07-30T12:31:56;3.45;;;2.20;;
62832;SDS011;48891;49.220;6.920;2022-07-30T12:34:22;3.70;;;2.20;;
62832;SDS011;48891;49.220;6.920;2022-07-30T12:36:47;3.38;;;2.08;;
62832;SDS011;48891;49.220;6.920;2022-07-30T12:39:19;3.67;;;2.30;;
62832;SDS011;48891;49.220;6.920;2022-07-30T12:41:45;3.40;;;2.25;;
62832;SDS011;48891;49.220;6.920;2022-07-30T12:46:55;3.72;;;2.22;;
62832;SDS011;48891;49.220;6.920;2022-07-30T12:49:20;3.00;;;2.03;;
62832;SDS011;48891;49.220;6.920;2022-07-30T12:51:52;3.25;;;2.20;;
62832;SDS011;48891;49.220;6.920;2022-07-30T12:54:18;3.47;;;2.30;;
62832;SDS011;48891;49.220;6.920;2022-07-30T12:56:59;2.85;;;2.20;;
62832;SDS011;48891;49.220;6.920;2022-07-30T12:59:25;2.80;;;1.92;;
62832;SDS011;48891;49.220;6.920;2022-07-30T13:01:50;2.45;;;2.08;;
62832;SDS011;48891;49.220;6.920;2022-07-30T13:04:15;4.35;;;2.40;;
62832;SDS011;48891;49.220;6.920;2022-07-30T13:06:41;3.10;;;2.20;;
62832;SDS011;48891;49.220;6.920;2022-07-30T13:09:06;2.60;;;2.10;;
62832;SDS011;48891;49.220;6.920;2022-07-30T13:11:41;3.20;;;1.98;;
62832;SDS011;48891;49.220;6.920;2022-07-30T13:14:06;3.50;;;2.30;;
62832;SDS011;48891;49.220;6.920;2022-07-30T13:16:32;4.15;;;1.90;;
62832;SDS011;48891;49.220;6.920;2022-07-30T13:18:58;2.60;;;2.00;;
62832;SDS011;48891;49.220;6.920;2022-07-30T13:21:23;1.87;;;1.67;;
62832;SDS011;48891;49.220;6.920;2022-07-30T13:23:48;3.10;;;2.00;;
62832;SDS011;48891;49.220;6.920;2022-07-30T13:26:13;3.35;;;2.05;;
62832;SDS011;48891;49.220;6.920;2022-07-30T13:28:38;3.70;;;1.83;;
62832;SDS011;48891;49.220;6.920;2022-07-30T13:31:03;3.55;;;1.70;;
62832;SDS011;48891;49.220;6.920;2022-07-30T13:33:29;2.17;;;1.80;;
62832;SDS011;48891;49.220;6.920;2022-07-30T13:35:54;3.70;;;2.17;;
62832;SDS011;48891;49.220;6.920;2022-07-30T13:38:19;2.90;;;1.80;;
62832;SDS011;48891;49.220;6.920;2022-07-30T13:40:44;2.90;;;2.13;;
62832;SDS011;48891;49.220;6.920;2022-07-30T13:43:09;2.35;;;2.00;;
62832;SDS011;48891;49.220;6.920;2022-07-30T13:45:34;2.30;;;1.83;;
62832;SDS011;48891;49.220;6.920;2022-07-30T13:48:00;3.07;;;2.00;;
62832;SDS011;48891;49.220;6.920;2022-07-30T13:50:25;2.75;;;2.00;;
62832;SDS011;48891;49.220;6.920;2022-07-30T13:52:50;2.33;;;2.10;;
62832;SDS011;48891;49.220;6.920;2022-07-30T13:55:15;3.33;;;2.10;;
62832;SDS011;48891;49.220;6.920;2022-07-30T13:57:40;3.30;;;2.30;;
62832;SDS011;48891;49.220;6.920;2022-07-30T14:00:06;2.28;;;1.85;;
62832;SDS011;48891;49.220;6.920;2022-07-30T14:02:32;2.85;;;1.90;;
62832;SDS011;48891;49.220;6.920;2022-07-30T14:04:57;3.42;;;1.90;;
62832;SDS011;48891;49.220;6.920;2022-07-30T14:07:22;2.70;;;1.90;;
62832;SDS011;48891;49.220;6.920;2022-07-30T14:09:47;3.07;;;1.90;;
62832;SDS011;48891;49.220;6.920;2022-07-30T14:12:12;2.20;;;1.83;;
62832;SDS011;48891;49.220;6.920;2022-07-30T14:14:37;2.22;;;1.88;;
62832;SDS011;48891;49.220;6.920;2022-07-30T14:17:03;2.23;;;1.80;;
62832;SDS011;48891;49.220;6.920;2022-07-30T14:19:28;3.65;;;1.80;;
62832;SDS011;48891;49.220;6.920;2022-07-30T14:21:53;2.20;;;2.00;;
62832;SDS011;48891;49.220;6.920;2022-07-30T14:24:19;3.10;;;1.70;;
62832;SDS011;48891;49.220;6.920;2022-07-30T14:26:44;3.53;;;1.95;;
62832;SDS011;48891;49.220;6.920;2022-07-30T14:29:09;2.15;;;1.70;;
62832;SDS011;48891;49.220;6.920;2022-07-30T14:31:34;1.88;;;1.65;;
62832;SDS011;48891;49.220;6.920;2022-07-30T14:34:00;2.00;;;1.67;;
62832;SDS011;48891;49.220;6.920;2022-07-30T14:36:25;2.47;;;1.80;;
62832;SDS011;48891;49.220;6.920;2022-07-30T14:38:50;2.75;;;1.83;;
62832;SDS011;48891;49.220;6.920;2022-07-30T14:41:15;2.92;;;2.00;;
62832;SDS011;48891;49.220;6.920;2022-07-30T14:43:40;2.47;;;1.73;;
62832;SDS011;48891;49.220;6.920;2022-07-30T14:46:05;2.60;;;1.80;;
62832;SDS011;48891;49.220;6.920;2022-07-30T14:48:31;2.42;;;1.80;;
62832;SDS011;48891;49.220;6.920;2022-07-30T14:50:56;1.80;;;1.60;;
62832;SDS011;48891;49.220;6.920;2022-07-30T14:53:21;2.25;;;1.60;;
62832;SDS011;48891;49.220;6.920;2022-07-30T14:55:46;2.92;;;1.70;;
62832;SDS011;48891;49.220;6.920;2022-07-30T14:58:11;2.63;;;1.73;;
62832;SDS011;48891;49.220;6.920;2022-07-30T15:00:36;2.45;;;1.95;;
62832;SDS011;48891;49.220;6.920;2022-07-30T15:03:01;2.30;;;1.65;;
62832;SDS011;48891;49.220;6.920;2022-07-30T15:05:26;2.88;;;1.80;;
62832;SDS011;48891;49.220;6.920;2022-07-30T15:07:51;1.83;;;1.60;;
62832;SDS011;48891;49.220;6.920;2022-07-30T15:10:17;2.63;;;1.63;;
62832;SDS011;48891;49.220;6.920;2022-07-30T15:12:42;2.10;;;1.63;;
62832;SDS011;48891;49.220;6.920;2022-07-30T15:15:07;2.22;;;1.60;;
62832;SDS011;48891;49.220;6.920;2022-07-30T15:17:32;2.55;;;1.70;;
62832;SDS011;48891;49.220;6.920;2022-07-30T15:19:57;1.92;;;1.40;;
62832;SDS011;48891;49.220;6.920;2022-07-30T15:22:22;1.63;;;1.50;;